This is the latest recevied weather packets stored in our database for station/object KZ4HT-13. If no packets are shown the sender has not sent any weather packets the latest 10 day(s).
| Time | Temp. | Humidity | Pressure | Rain* | Wind** | Luminosity | Snow |
|---|---|---|---|---|---|---|---|
| 1778005823 | 30.56° C | 43% | 1016.2 hPa | 0 mm | - | - | - |
| 1778003418 | 28.33° C | 48% | 1016.6 hPa | 0 mm | - | - | - |
| 1777999270 | 27.78° C | 53% | 1017.2 hPa | 0 mm | - | - | - |
| 1777998689 | 28.89° C | 49% | 1017.1 hPa | 0 mm | - | - | - |
| 1777996264 | 27.78° C | 53% | 1017.3 hPa | 0 mm | - | - | - |
| 1777993859 | 27.22° C | 53% | 1017.3 hPa | 0 mm | - | - | - |
| 1777993257 | 27.22° C | 53% | 1017.2 hPa | 0 mm | - | - | - |
| 1777989650 | 25.56° C | 62% | 1016.8 hPa | 0 mm | - | - | - |
| 1777989069 | 25° C | 65% | 1016.9 hPa | 0 mm | - | - | - |
| 1777987845 | 24.44° C | 69% | 1016.9 hPa | 0 mm | - | - | - |
| 1777985441 | 23.33° C | 74% | 1016.7 hPa | 0 mm | - | - | - |
| 1777984237 | 21.67° C | 81% | 1017 hPa | 0 mm | - | - | - |
| 1777980028 | 16.11° C | 96% | 1016 hPa | 0 mm | - | - | - |
| 1777979426 | 16.11° C | 96% | 1015.8 hPa | 0 mm | - | - | - |
| 1777975819 | 15.56° C | 95% | 1015.7 hPa | 0 mm | - | - | - |
| 1777975217 | 15.56° C | 95% | 1015.5 hPa | 0 mm | - | - | - |
| 1777971068 | 16.11° C | 93% | 1015.2 hPa | 0 mm | - | - | - |
| 1777969864 | 16.67° C | 91% | 1015.2 hPa | 0 mm | - | - | - |
| 1777968702 | 17.22° C | 88% | 1015.1 hPa | 0 mm | - | - | - |
| 1777966257 | 17.78° C | 86% | 1015.2 hPa | 0 mm | - | - | - |
| 1777964452 | 17.78° C | 87% | 1015.3 hPa | 0 mm | - | - | - |
| 1777959641 | 17.22° C | 90% | 1016.2 hPa | 0 mm | - | - | - |
| 1777955471 | 18.89° C | 81% | 1017 hPa | 0 mm | - | - | - |
| 1777953044 | 19.44° C | 77% | 1016.8 hPa | 0 mm | - | - | - |
| 1777952464 | 19.44° C | 77% | 1016.8 hPa | 0 mm | - | - | - |
* Rain since midnight (hover to see other rain measurements)
** Current wind speed in m/s (hover to see current wind gust speed)